ENNA METAR and TAF weather

Enter ICAO airport designator
Station Type Date Time Source
ENNA METAR 2021/05/10 23:50 UTC NOAA

ENNA 102350Z VRB03KT CAVOK M02/M03 Q1013 RMK WIND 1800FT 25004KT


Station Type Date Time Source
ENNA Decoded METAR 2021/05/10 23:50 UTC NOAA

Banak, Norway (ENNA) 70-04N 024-59E 8M
May 10, 2021 - 07:50 PM EDT / 2021.05.10 2350 UTC
Wind: Variable at 3 MPH (3 KT):0
Visibility: greater than 7 mile(s):0
Temperature: 28 F (-2 C)
Dew Point: 26 F (-3 C)
Relative Humidity: 92%
Pressure (altimeter): 29.91 in. Hg (1013 hPa)
ob: ENNA 102350Z VRB03KT CAVOK M02/M03 Q1013 RMK WIND 1800FT 25004KT
cycle: 0

Station Type Date Time Source
ENNA TAF 2021/05/11 01:09 UTC NOAA

TAF TAF ENNA 1101/1124 CNL

Example: see airport list